AirNav   ATP
 
 413 users online  

KEZZ Cameron Memorial Airport
Cameron, Missouri, USA

GOING TO CAMERON?


FAA INFORMATION EFFECTIVE 01 FEBRUARY 2018

Location

FAA Identifier: EZZ
Lat/Long: 39-43-39.2000N / 094-16-35.0000W
39-43.653333N / 094-16.583333W
39.7275556 / -94.2763889
(estimated)
Elevation: 1040.1 ft. / 317.0 m (surveyed)
Variation: 03E (2000)
From city: 2 miles SW of CAMERON, MO
Time zone: UTC -6 (UTC -5 during Daylight Saving Time)
Zip code: 64429

Airport Operations

Airport use: Open to the public
Activation date: 12/1970
Control tower: no
ARTCC: KANSAS CITY CENTER
FSS: COLUMBIA FLIGHT SERVICE STATION
NOTAMs facility: COU (NOTAM-D service available)
Attendance:  ALL MON-FRI 0900-1700, ALL SAT IREG
Wind indicator: lighted
Segmented circle: yes
Lights: MIRL RY 17/35, PAPI RYS 17 & 35, REIL RYS 17 & 35 OPER DUSK-2400; AFT 2400 ACTVT & INCR INTS - CTAF.
Beacon: white-green (lighted land airport)
Operates sunset to sunrise.

Airport Communications

CTAF/UNICOM: 122.8
KANSAS CITY APPROACH: 118.4
KANSAS CITY DEPARTURE: 118.4
CLEARANCE DELIVERY: 121.6

Nearby radio navigation aids

VOR radial/distance  VOR name  Freq  Var
BQSr284/19.4BRAYMER VOR/DME111.2003E
STJr107/33.0ST JOSEPH VORTAC115.5008E
MCIr034/34.0KANSAS CITY VORTAC113.2505E
ANXr343/38.5NAPOLEON VORTAC114.0007E

 
NDB name  Hdg/Dist  Freq  Var  ID
AMAZON104/30.623304EAZN .- --.. -.
TRENTON233/37.940003ETRX - .-. -..-

Airport Services

Fuel available: 100LL
AUTOMATED SELF FUEL AVBL 24 HRS.
Parking: hangars and tiedowns

Runway Information

Runway 17/35

Dimensions: 4000 x 75 ft. / 1219 x 23 m
Surface: concrete, in good condition
Weight bearing capacity: 
Single wheel: 30.0
Runway edge lights: medium intensity
Gradient: UP NORTH
RUNWAY 17  RUNWAY 35
Latitude: 39-43.981517N39-43.325632N
Longitude: 094-16.623387W094-16.542028W
Elevation: 1040.1 ft.1023.1 ft.
Gradient: 0.6%0.4% UP
Traffic pattern: leftleft
Runway heading: 172 magnetic, 175 true352 magnetic, 355 true
Markings: nonprecision, in good conditionnonprecision, in good condition
Visual slope indicator: 4-light PAPI on left (3.00 degrees glide path)4-light PAPI on left (3.00 degrees glide path)
Runway end identifier lights: yesyes
Touchdown point: yes, no lightsyes, no lights

Airport Ownership and Management from official FAA records

Ownership: Publicly-owned
Owner: CITY OF CAMERON
205 NORTH MAIN
CAMERON, MO 64429
Phone 816-632-2177
Manager: ERIC EVANS
11766 NORTHEAST A HWY
CAMERON, MO 64429
Phone 816-632-2423

Airport Operational Statistics

Aircraft based on the field: 31
Single engine airplanes: 27
Helicopters: 1
Ultralights: 3
  • ULTRALIGHT ACTVTY ON & INVOF ARPT.
    
Aircraft operations: avg 135/week *
53% transient general aviation
43% local general aviation
4% air taxi
<1% military
* for 12-month period ending 31 December 2014

Instrument Procedures

NOTE: All procedures below are presented as PDF files. If you need a reader for these files, you should download the free Adobe Reader.

NOT FOR NAVIGATION. Please procure official charts for flight.
FAA instrument procedures published for use between 1 February 2018 at 0901Z and 1 March 2018 at 0900Z.

 
IAPs - Instrument Approach Procedures
RNAV (GPS) RWY 17   download (162KB)
RNAV (GPS) RWY 35   download (167KB)
NOTE: Special Take-Off Minimums/Departure Procedures apply   download (158KB)

Other nearby airports with instrument procedures:

3EX - Excelsior Springs Memorial Airport (24 nm S)
KGPH - Midwest National Air Center Airport (24 nm S)
KSTJ - Rosecrans Memorial Airport (29 nm W)
KMCI - Kansas City International Airport (33 nm SW)
KCHT - Chillicothe Municipal Airport (36 nm E)
 
Loc | Ops | Rwys | IFR | FBO | Links
Com | Nav | Svcs | Stats | Notes

Kansas City Aviation Department
 
Area around KEZZ (Cameron Memorial Airport)
 
Road maps at: MapQuest Bing Google
 
Aerial photo
WARNING: Photo may not be current or correct
Aerial photo of KEZZ (Cameron Memorial Airport)
Photo taken 10-Jan-2012
looking northeast.

Do you have a better or more recent aerial photo of Cameron Memorial Airport that you would like to share? If so, please send us your photo.

 
Sectional chart

 
Airport distance calculator
Flying to Cameron Memorial Airport? Find the distance to fly.

From to KEZZ

Sunrise and sunset
Times for 24-Feb-2018
 Local
(UTC-6)
 Zulu
(UTC)
Morning civil twilight06:3112:31
Sunrise06:5812:58
Sunset18:0200:02
Evening civil twilight18:3000:30

Current date and time
Zulu (UTC)  24-Feb-2018 07:19:12
Local (UTC-6)  24-Feb-2018 01:19:12
 
METAR
KGPH 
24nm S 
240655Z AUTO 05005KT 7SM DZ OVC027 01/00 A3011 RMK AO2 LTG DSNT S
KSTJ 
30nm W 
240653Z AUTO 01010KT 4SM BR FEW021 SCT036 OVC050 01/00 A3013 RMK AO2 SLP210 P0001 T00060000
KCDJ 
32nm E 
240652Z AUTO 04007KT 01/M01 A3016 RMK AO1 SLP225 T00111006
KMCI 
33nm SW 
240703Z 05011KT 2SM -RA BR BKN007 OVC028 01/M01 A3009 RMK AO2 SFC VIS 3 P0001 T00061006
KMKC 
40nm S 
240654Z 04005KT 5SM -RA SCT008 BKN019 OVC023 02/M01 A3010 RMK AO2 RAE0558B19 SLP199 P0001 T00221006
KLXT 
46nm S 
240653Z AUTO 06009KT 3SM UP BR OVC005 01/01 A3009 RMK AO2 UPB01E14B29RAB14E29 SLP197 P0001 T00060006
TAF
KSTJ 
30nm W 
240520Z 2406/2506 07005KT P6SM VCSH OVC019 FM240800 08007KT 5SM -SHRA BR OVC012 TEMPO 2410/2414 -FZRA OVC006 FM241400 09009KT 4SM BR OVC003 FM241800 12007KT 5SM -SHRA BR OVC012
KMCI 
33nm SW 
240520Z 2406/2506 06005KT 6SM -SHRA OVC015 TEMPO 2406/2408 BKN008 FM240800 07007KT 5SM -SHRA BR OVC006 FM241200 08009KT 4SM BR OVC003 FM241800 13006KT 5SM -SHRA BR OVC012
NOTAMs
Click for the latest NOTAMs
NOTAMs are issued by the DoD/FAA and will open in a separate window not controlled by AirNav.

 

 
 

FBO, Fuel Providers, and Aircraft Ground Support

  
 Business Name 
 
 Contact 
 
 Services / Description 
 
Fuel Prices
 
Comments
  
Cameron Memorial Airport 816-284-3136
[web site]
[email]
Airport management, Aviation fuel, Aircraft parking (ramp or tiedown), Hangar leasing / sales, Flight training, Aircraft rental, Aircraft maintenance, Pilot supplies, ...

More info about Cameron Memorial Airport
Phillips 66
100LL
AS $4.02 
 Updated 19-Feb-2018
 
   1 read write
AS=Assisted/Self Service
Update Fuel Prices
 

Would you like to see your business listed on this page?

 If your business provides an interesting product or service to pilots, flight crews, aircraft, or users of the Cameron Memorial Airport, you should consider listing it here.  To start the listing process, click on the button below
 
Add a business
 

Other Pages about Cameron Memorial Airport

www.cameron-mo.com/index.aspx?nid=70
 
Update a link
 
Copyright © AirNav, LLC. All rights reserved. Privacy Policy  Contact